createdAt,value
2018-03-02T04:33:15.735Z,-9.40
2018-03-02T04:35:44.262Z,-9.40
2018-03-02T04:38:12.050Z,-9.40
2018-03-02T05:09:27.333Z,-9.10
2018-03-02T05:11:55.776Z,-9.00
2018-03-02T05:14:23.408Z,-9.10
2018-03-02T05:16:51.048Z,-8.90
2018-03-02T05:19:19.480Z,-8.80
2018-03-02T05:21:47.123Z,-8.80
2018-03-02T05:24:14.771Z,-8.90
2018-03-02T05:26:42.457Z,-8.80
2018-03-02T05:29:10.097Z,-8.80
2018-03-02T05:31:37.744Z,-8.80
2018-03-02T05:34:05.401Z,-8.80
2018-03-02T05:36:33.050Z,-8.80
2018-03-02T05:39:00.694Z,-8.70
2018-03-02T05:41:29.155Z,-8.70
2018-03-02T05:43:56.793Z,-8.70
2018-03-02T05:46:24.516Z,-8.70
2018-03-02T05:48:52.173Z,-8.70
2018-03-02T05:51:20.581Z,-8.60
2018-03-02T05:53:48.255Z,-8.70
2018-03-02T05:56:15.892Z,-8.60
2018-03-02T05:58:43.533Z,-8.60
2018-03-02T06:01:11.218Z,-8.60
2018-03-02T06:03:38.861Z,-8.50
2018-03-02T06:06:06.534Z,-8.40
2018-03-02T06:08:34.359Z,-8.30
2018-03-02T06:11:02.044Z,-8.30
2018-03-02T06:13:29.728Z,-8.30
2018-03-02T06:15:57.365Z,-8.20
2018-03-02T06:18:25.004Z,-8.20
2018-03-02T06:20:53.458Z,-8.10
2018-03-02T06:23:21.095Z,-8.10
2018-03-02T06:25:48.732Z,-8.00
2018-03-02T06:28:16.388Z,-8.00
2018-03-02T06:30:44.037Z,-8.00
2018-03-02T06:33:12.488Z,-8.00
2018-03-02T06:35:40.125Z,-8.00
2018-03-02T06:38:07.932Z,-7.90
2018-03-02T06:40:36.569Z,-7.90
2018-03-02T06:43:04.249Z,-7.90
2018-03-02T06:45:31.912Z,-7.90
2018-03-02T06:47:59.674Z,-7.90
2018-03-02T06:50:27.331Z,-7.80
2018-03-02T06:52:55.077Z,-7.80
2018-03-02T06:55:22.946Z,-7.70
2018-03-02T06:57:50.624Z,-7.70
2018-03-02T07:00:18.373Z,-7.60
2018-03-02T07:02:46.040Z,-7.60
2018-03-02T07:05:13.687Z,-7.60
2018-03-02T07:07:41.450Z,-7.60
2018-03-02T07:10:09.233Z,-7.50
2018-03-02T07:12:36.873Z,-7.50
2018-03-02T07:15:04.636Z,-7.50
2018-03-02T07:17:32.501Z,-7.50
2018-03-02T07:20:00.571Z,-7.40
2018-03-02T07:22:28.253Z,-7.30
2018-03-02T07:24:56.097Z,-7.20
2018-03-02T07:27:23.785Z,-7.20
2018-03-02T07:29:51.435Z,-7.30
2018-03-02T07:32:19.106Z,-7.30
2018-03-02T07:34:46.843Z,-7.30
2018-03-02T07:37:14.605Z,-7.30
2018-03-02T07:39:42.473Z,-7.20
2018-03-02T07:42:10.148Z,-7.20
2018-03-02T07:44:37.897Z,-7.10
2018-03-02T07:47:05.656Z,-7.10
2018-03-02T07:49:33.418Z,-7.00
2018-03-02T07:52:01.182Z,-6.80
2018-03-02T07:54:28.860Z,-6.80
2018-03-02T07:56:56.522Z,-6.70
2018-03-02T07:59:24.180Z,-6.60
2018-03-02T08:01:51.830Z,-6.40
2018-03-02T08:04:19.705Z,-6.20
2018-03-02T08:06:47.428Z,-6.20
2018-03-02T08:09:15.214Z,-6.20
2018-03-02T08:11:42.902Z,-6.30
2018-03-02T08:14:12.276Z,-6.50
2018-03-02T08:16:40.042Z,-6.50
2018-03-02T08:19:07.700Z,-6.60
2018-03-02T08:21:35.379Z,-6.70
2018-03-02T08:24:03.040Z,-6.70
2018-03-02T08:26:30.805Z,-6.70
2018-03-02T08:28:58.564Z,-6.70
2018-03-02T08:31:26.193Z,-6.70
2018-03-02T08:33:53.972Z,-6.70
2018-03-02T08:36:21.733Z,-6.80
2018-03-02T08:38:49.363Z,-6.70
2018-03-02T08:41:17.071Z,-6.60
2018-03-02T08:43:44.817Z,-6.50
2018-03-02T08:46:12.579Z,-6.40
2018-03-02T08:48:40.248Z,-6.20
2018-03-02T08:51:08.004Z,-6.10
2018-03-02T08:53:35.684Z,-6.00
2018-03-02T08:56:03.360Z,-6.00
2018-03-02T08:58:31.908Z,-5.90
2018-03-02T09:00:59.668Z,-5.90
2018-03-02T09:03:27.432Z,-5.90
2018-03-02T09:05:55.116Z,-5.80
2018-03-02T09:08:22.772Z,-5.60
2018-03-02T09:10:50.619Z,-5.40
2018-03-02T09:13:18.381Z,-5.30
2018-03-02T09:15:46.147Z,-5.10
2018-03-02T09:18:13.919Z,-5.00
2018-03-02T09:20:41.561Z,-4.80
2018-03-02T09:23:09.433Z,-4.70
2018-03-02T09:25:37.195Z,-4.70
2018-03-02T09:28:04.958Z,-4.60
2018-03-02T09:30:32.721Z,-4.40
2018-03-02T09:33:00.401Z,-4.30
2018-03-02T09:35:28.147Z,-4.20
2018-03-02T09:37:56.012Z,-4.10
2018-03-02T09:40:23.772Z,-4.10
2018-03-02T09:42:51.455Z,-4.00
2018-03-02T09:45:20.018Z,-3.90
2018-03-02T09:47:47.648Z,-3.90
2018-03-02T09:50:15.439Z,-3.90
2018-03-02T09:52:43.093Z,-4.00
2018-03-02T09:55:10.863Z,-3.90
2018-03-02T09:57:38.625Z,-3.80
2018-03-02T10:00:06.311Z,-3.90
2018-03-02T10:02:35.584Z,-4.10
2018-03-02T10:05:03.346Z,-4.10
2018-03-02T10:07:30.978Z,-4.00
2018-03-02T10:09:58.770Z,-4.00
2018-03-02T10:12:26.534Z,-4.00
2018-03-02T10:14:54.212Z,-3.90
2018-03-02T10:17:21.925Z,-3.70
2018-03-02T10:19:49.719Z,-3.60
2018-03-02T10:22:17.482Z,-3.60
2018-03-02T10:24:45.135Z,-3.50
2018-03-02T10:27:12.907Z,-3.40
2018-03-02T10:29:40.669Z,-3.30
2018-03-02T10:32:08.432Z,-3.30
2018-03-02T10:34:36.098Z,-3.30
2018-03-02T10:37:03.772Z,-3.30
2018-03-02T10:39:31.618Z,-3.30
2018-03-02T10:41:59.278Z,-3.30
2018-03-02T10:44:27.044Z,-3.30
2018-03-02T10:46:54.721Z,-3.20
2018-03-02T10:49:22.479Z,-3.10
2018-03-02T10:51:50.330Z,-3.00
2018-03-02T10:54:18.092Z,-3.00
2018-03-02T10:56:45.772Z,-2.90
2018-03-02T10:59:13.536Z,-2.70
2018-03-02T11:01:46.774Z,-2.60
2018-03-02T11:04:18.288Z,-2.50
2018-03-02T11:06:46.020Z,-2.50
2018-03-02T11:09:13.783Z,-2.40
2018-03-02T11:11:41.442Z,-2.50
2018-03-02T11:14:09.124Z,-2.50
2018-03-02T11:16:36.971Z,-2.60
2018-03-02T11:19:04.630Z,-2.50
2018-03-02T11:21:32.314Z,-2.50
2018-03-02T11:24:00.156Z,-2.40
2018-03-02T11:26:27.817Z,-2.30
2018-03-02T11:28:55.500Z,-2.20
2018-03-02T11:31:23.240Z,-2.10
2018-03-02T11:33:50.868Z,-1.90
2018-03-02T11:36:18.580Z,-1.90
2018-03-02T11:38:46.428Z,-1.70
2018-03-02T11:41:14.087Z,-1.80
2018-03-02T11:43:41.716Z,-2.00
2018-03-02T11:46:09.388Z,-2.10
2018-03-02T11:48:37.171Z,-2.20
2018-03-02T11:51:04.847Z,-2.20
2018-03-02T11:53:32.612Z,-2.30
2018-03-02T11:56:00.357Z,-2.30
2018-03-02T11:58:28.037Z,-2.50
2018-03-02T12:00:55.882Z,-2.70
2018-03-02T12:03:23.645Z,-2.80
2018-03-02T12:05:51.305Z,-2.90
2018-03-02T12:08:18.984Z,-2.90
2018-03-02T12:10:46.644Z,-2.80
2018-03-02T12:13:14.302Z,-2.90
2018-03-02T12:15:42.049Z,-2.90
2018-03-02T12:18:09.813Z,-2.80
2018-03-02T12:20:37.677Z,-2.80
2018-03-02T12:23:05.441Z,-2.80
2018-03-02T12:25:33.208Z,-2.80
2018-03-02T12:28:00.984Z,-2.70
2018-03-02T12:30:28.728Z,-2.60
2018-03-02T12:32:56.492Z,-2.50
2018-03-02T12:35:24.181Z,-2.60
2018-03-02T12:37:51.915Z,-2.50
2018-03-02T12:40:19.681Z,-2.30
2018-03-02T12:42:47.543Z,-2.30
2018-03-02T12:45:15.306Z,-2.30
2018-03-02T12:47:43.069Z,-2.30
2018-03-02T12:50:10.834Z,-2.20
2018-03-02T12:52:38.512Z,-2.20
2018-03-02T12:55:06.427Z,-2.20
2018-03-02T12:57:34.121Z,-2.30
2018-03-02T13:00:01.801Z,-2.30
2018-03-02T13:02:29.459Z,-2.30
2018-03-02T13:04:57.203Z,-2.20
2018-03-02T13:07:24.967Z,-2.10
2018-03-02T13:09:52.747Z,-2.10
2018-03-02T13:12:20.408Z,-2.10
2018-03-02T13:14:48.041Z,-2.00
2018-03-02T13:17:15.814Z,-1.90
2018-03-02T13:19:43.496Z,-1.90
2018-03-02T13:22:23.115Z,-1.80
2018-03-02T13:24:50.878Z,-1.70
2018-03-02T13:27:30.436Z,-1.80
2018-03-02T13:29:58.283Z,-1.90
2018-03-02T13:32:26.046Z,-1.80
2018-03-02T13:35:05.704Z,-1.90
2018-03-02T13:37:33.451Z,-1.80
2018-03-02T13:40:13.193Z,-1.60
2018-03-02T13:42:40.864Z,-1.60
2018-03-02T13:45:08.619Z,-1.60
2018-03-02T13:50:47.152Z,-1.50
2018-03-02T13:53:15.015Z,-1.50
2018-03-02T13:55:42.657Z,-1.50
2018-03-02T13:58:10.440Z,-1.50
2018-03-02T14:00:38.306Z,-1.50
2018-03-02T14:03:18.150Z,-1.40
2018-03-02T14:05:45.913Z,-1.40
2018-03-02T14:08:13.593Z,-1.40
2018-03-02T14:10:41.338Z,-1.30
2018-03-02T14:13:09.017Z,-1.20
2018-03-02T14:15:36.760Z,-1.20
2018-03-02T14:18:04.525Z,-1.20
2018-03-02T14:20:32.393Z,-1.20
2018-03-02T14:23:00.159Z,-1.20
2018-03-02T14:25:27.832Z,-1.30
2018-03-02T14:27:55.596Z,-1.30
2018-03-02T14:30:23.345Z,-1.20
2018-03-02T14:32:51.135Z,-1.10
2018-03-02T14:35:18.792Z,-1.10
2018-03-02T14:37:46.424Z,-1.10
2018-03-02T14:40:14.216Z,-1.00
2018-03-02T14:42:41.900Z,-1.10
2018-03-02T14:45:10.306Z,-1.10
2018-03-02T14:47:37.932Z,-1.10
2018-03-02T14:50:06.978Z,-1.10
2018-03-02T14:52:34.742Z,-1.10
2018-03-02T14:55:02.372Z,-1.10
2018-03-02T14:57:30.185Z,-1.00
2018-03-02T14:59:57.844Z,-1.10
2018-03-02T15:02:25.524Z,-1.00
2018-03-02T15:04:54.088Z,-1.00
2018-03-02T15:07:22.037Z,-1.00
2018-03-02T15:09:49.668Z,-0.90
2018-03-02T15:12:17.325Z,-0.80
2018-03-02T15:14:44.959Z,-0.80
2018-03-02T15:17:13.380Z,-0.80
2018-03-02T15:19:41.040Z,-0.80
2018-03-02T15:22:08.676Z,-0.80
2018-03-02T15:24:36.400Z,-0.90
2018-03-02T15:27:04.036Z,-0.90
2018-03-02T15:29:31.740Z,-1.00
2018-03-02T15:32:00.204Z,-1.00
2018-03-02T15:34:27.837Z,-1.00
2018-03-02T15:36:55.476Z,-1.10
2018-03-02T15:39:23.156Z,-1.20
2018-03-02T15:41:50.787Z,-1.20
2018-03-02T15:44:18.416Z,-1.20
2018-03-02T15:46:46.844Z,-1.30
2018-03-02T15:49:14.473Z,-1.40
2018-03-02T15:51:42.140Z,-1.40
2018-03-02T15:54:09.776Z,-1.50
2018-03-02T15:56:38.334Z,-1.50
2018-03-02T15:59:06.017Z,-1.60
2018-03-02T16:01:34.418Z,-1.60
2018-03-02T16:04:02.092Z,-1.60
2018-03-02T16:06:29.894Z,-1.70
2018-03-02T16:08:59.181Z,-1.80
2018-03-02T16:11:26.941Z,-1.80
2018-03-02T16:13:54.708Z,-1.80
2018-03-02T16:16:22.468Z,-1.80
2018-03-02T16:18:50.253Z,-1.80
2018-03-02T16:21:17.997Z,-1.80
2018-03-02T16:23:45.672Z,-1.80
2018-03-02T16:26:13.343Z,-1.80
2018-03-02T16:28:41.077Z,-2.00
2018-03-02T16:31:08.756Z,-2.10
2018-03-02T16:33:36.520Z,-2.20
2018-03-02T16:36:04.263Z,-2.30
2018-03-02T16:38:32.027Z,-2.40
2018-03-02T16:40:59.892Z,-2.50
2018-03-02T16:43:27.576Z,-2.50
2018-03-02T16:45:56.852Z,-2.50
2018-03-02T16:48:24.717Z,-2.60
2018-03-02T16:50:52.408Z,-2.50
2018-03-02T16:53:20.243Z,-2.60
2018-03-02T16:55:48.033Z,-2.60
2018-03-02T16:58:16.512Z,-2.60
2018-03-02T17:00:44.268Z,-2.70
2018-03-02T17:03:12.116Z,-2.60
2018-03-02T17:05:39.820Z,-2.60
2018-03-02T17:08:08.258Z,-2.60
2018-03-02T17:10:36.018Z,-2.70
2018-03-02T17:13:03.782Z,-2.70
2018-03-02T17:15:31.648Z,-2.70
2018-03-02T17:17:59.288Z,-2.70
2018-03-02T17:20:26.985Z,-2.60
2018-03-02T17:22:55.432Z,-2.70
2018-03-02T17:25:23.208Z,-2.70
2018-03-02T17:27:50.894Z,-2.70
2018-03-02T17:30:18.656Z,-2.80
2018-03-02T17:32:46.314Z,-2.80
2018-03-02T17:35:14.162Z,-2.80
2018-03-02T17:37:41.920Z,-2.90
2018-03-02T17:40:09.683Z,-2.90
2018-03-02T17:42:37.446Z,-3.00
2018-03-02T17:45:05.209Z,-3.00
2018-03-02T17:47:32.971Z,-3.00
2018-03-02T17:50:00.735Z,-3.10
2018-03-02T17:52:28.417Z,-3.10
2018-03-02T17:54:56.260Z,-3.10
2018-03-02T17:57:24.024Z,-3.10
2018-03-02T17:59:51.785Z,-3.10
2018-03-02T18:02:19.653Z,-3.10
2018-03-02T18:04:47.415Z,-3.10
2018-03-02T18:07:15.044Z,-3.10
2018-03-02T18:09:42.756Z,-3.10
2018-03-02T18:12:10.499Z,-3.10
2018-03-02T18:14:38.285Z,-3.10
2018-03-02T18:17:05.944Z,-3.10
2018-03-02T18:19:33.694Z,-3.10
2018-03-02T18:22:01.448Z,-3.10
2018-03-02T18:24:29.213Z,-3.00
2018-03-02T18:26:56.992Z,-2.90
2018-03-02T18:29:24.742Z,-3.00
2018-03-02T18:31:52.502Z,-3.00
2018-03-02T18:34:20.286Z,-3.00
2018-03-02T18:36:48.068Z,-3.00
2018-03-02T18:39:16.820Z,-3.00
2018-03-02T18:41:44.677Z,-3.00
2018-03-02T18:44:12.440Z,-3.00
2018-03-02T18:46:40.204Z,-3.00
2018-03-02T18:49:08.068Z,-3.00
2018-03-02T18:51:35.753Z,-3.00
2018-03-02T18:54:03.389Z,-3.10
2018-03-02T18:56:31.164Z,-3.10
2018-03-02T18:58:58.915Z,-3.10
2018-03-02T19:01:26.701Z,-3.10
2018-03-02T19:03:54.543Z,-3.10
2018-03-02T19:06:22.408Z,-3.10
2018-03-02T19:08:50.324Z,-3.10
2018-03-02T19:11:18.777Z,-3.20
2018-03-02T19:13:46.519Z,-3.20
2018-03-02T19:16:14.209Z,-3.30
2018-03-02T19:18:41.941Z,-3.30
2018-03-02T19:21:09.812Z,-3.30
2018-03-02T19:23:37.679Z,-3.30
2018-03-02T19:26:07.271Z,-3.40
2018-03-02T19:28:35.207Z,-3.50
2018-03-02T19:31:03.009Z,-3.40
2018-03-02T19:33:30.875Z,-3.50
2018-03-02T19:35:58.747Z,-3.50
2018-03-02T19:38:26.807Z,-3.40
2018-03-02T19:40:54.774Z,-3.50
2018-03-02T19:43:22.641Z,-3.40
2018-03-02T19:45:50.506Z,-3.50
2018-03-02T19:48:18.372Z,-3.50
2018-03-02T19:50:46.135Z,-3.50
2018-03-02T19:53:13.950Z,-3.50
2018-03-02T19:55:41.843Z,-3.40
2018-03-02T19:58:09.628Z,-3.40
2018-03-02T20:00:37.496Z,-3.40
2018-03-02T20:03:05.256Z,-3.40
2018-03-02T20:05:33.122Z,-3.50
2018-03-02T20:08:00.924Z,-3.50
2018-03-02T20:10:28.751Z,-3.50
2018-03-02T20:12:56.512Z,-3.40
2018-03-02T20:15:24.488Z,-3.50
2018-03-02T20:17:53.534Z,-3.40
2018-03-02T20:20:22.159Z,-3.40
2018-03-02T20:22:49.868Z,-3.40
2018-03-02T20:25:17.683Z,-3.40
2018-03-02T20:27:45.547Z,-3.40
2018-03-02T20:30:13.446Z,-3.50
2018-03-02T20:32:41.925Z,-3.50
2018-03-02T20:35:09.695Z,-3.50
2018-03-02T20:37:38.240Z,-3.40
2018-03-02T20:40:06.104Z,-3.50
2018-03-02T20:42:33.924Z,-3.50
2018-03-02T20:45:01.835Z,-3.50
2018-03-02T20:47:29.560Z,-3.40
2018-03-02T20:49:57.292Z,-3.40
2018-03-02T20:52:25.124Z,-3.40
2018-03-02T20:54:52.988Z,-3.50
2018-03-02T20:57:23.287Z,-3.50
2018-03-02T20:59:51.176Z,-3.50
2018-03-02T21:02:18.880Z,-3.50
2018-03-02T21:04:47.338Z,-3.50
2018-03-02T21:07:15.101Z,-3.60
2018-03-02T21:09:42.760Z,-3.60
2018-03-02T21:12:10.420Z,-3.50
2018-03-02T21:14:38.193Z,-3.50
2018-03-02T21:17:06.028Z,-3.60
2018-03-02T21:19:33.829Z,-3.60
2018-03-02T21:22:02.373Z,-3.70
2018-03-02T21:24:30.136Z,-3.70
2018-03-02T21:26:57.900Z,-3.70
2018-03-02T21:29:25.801Z,-3.80
2018-03-02T21:31:53.441Z,-3.70
2018-03-02T21:34:23.698Z,-3.70
2018-03-02T21:36:49.872Z,-3.80
2018-03-02T21:39:17.610Z,-3.80
2018-03-02T21:41:45.296Z,-3.70
2018-03-02T21:44:13.165Z,-3.80
2018-03-02T21:46:40.844Z,-3.90
2018-03-02T21:49:08.589Z,-3.90
2018-03-02T21:51:36.369Z,-3.90
2018-03-02T21:54:04.029Z,-3.80
2018-03-02T21:56:31.819Z,-3.80
2018-03-02T21:59:00.252Z,-3.80
2018-03-02T22:01:28.017Z,-3.80
2018-03-02T22:03:56.497Z,-3.80
2018-03-02T22:06:24.257Z,-3.80
2018-03-02T22:08:52.022Z,-3.80
2018-03-02T22:11:19.700Z,-3.80
2018-03-02T22:13:47.443Z,-3.80
2018-03-02T22:16:15.206Z,-3.90
2018-03-02T22:18:42.973Z,-3.90
2018-03-02T22:21:11.553Z,-3.80
2018-03-02T22:23:39.313Z,-3.90
2018-03-02T22:26:07.080Z,-3.90
2018-03-02T22:28:34.757Z,-3.90
2018-03-02T22:31:02.488Z,-3.90
2018-03-02T22:33:30.148Z,-3.90
2018-03-02T22:35:57.808Z,-3.90
2018-03-02T22:38:25.528Z,-4.00
2018-03-02T22:40:53.932Z,-4.00
2018-03-02T22:43:21.572Z,-3.90
2018-03-02T22:45:50.000Z,-3.80
2018-03-02T22:48:17.641Z,-3.80
2018-03-02T22:50:45.280Z,-3.70
2018-03-02T22:53:12.936Z,-3.70
2018-03-02T22:55:40.580Z,-3.80
2018-03-02T22:58:09.020Z,-3.80
2018-03-02T23:00:36.699Z,-3.80
2018-03-02T23:03:04.444Z,-3.90
2018-03-02T23:05:32.307Z,-3.80
2018-03-02T23:07:59.992Z,-3.80
2018-03-02T23:10:27.648Z,-3.80
2018-03-02T23:12:55.500Z,-3.80
2018-03-02T23:15:23.256Z,-3.90
2018-03-02T23:17:50.939Z,-3.80
2018-03-02T23:20:18.584Z,-3.80
2018-03-02T23:22:46.243Z,-3.90
2018-03-02T23:25:13.877Z,-3.90
2018-03-02T23:27:41.560Z,-3.90
